createdAt,value
2019-03-28T00:01:07.215Z,42.47
2019-03-28T00:03:35.338Z,42.22
2019-03-28T00:06:03.454Z,42.52
2019-03-28T00:08:31.519Z,42.15
2019-03-28T00:11:00.173Z,41.96
2019-03-28T00:13:28.261Z,41.27
2019-03-28T00:15:56.515Z,42.70
2019-03-28T00:18:25.892Z,41.41
2019-03-28T00:20:53.989Z,41.44
2019-03-28T00:23:50.393Z,41.33
2019-03-28T00:26:29.368Z,41.55
2019-03-28T00:28:48.439Z,41.05
2019-03-28T00:31:16.475Z,40.28
2019-03-28T00:33:44.559Z,40.80
2019-03-28T00:36:12.655Z,41.50
2019-03-28T00:38:40.739Z,43.24
2019-03-28T00:41:08.772Z,42.08
2019-03-28T00:43:36.806Z,44.46
2019-03-28T00:46:04.852Z,43.01
2019-03-28T00:48:32.780Z,42.06
2019-03-28T00:51:00.809Z,42.11
2019-03-28T00:53:28.832Z,44.32
2019-03-28T00:55:56.929Z,41.16
2019-03-28T00:58:24.887Z,42.31
2019-03-28T01:00:52.900Z,41.53
2019-03-28T01:03:20.891Z,42.47
2019-03-28T01:05:49.000Z,42.81
2019-03-28T01:08:17.061Z,41.05
2019-03-28T01:10:45.028Z,43.83
2019-03-28T01:13:13.036Z,42.32
2019-03-28T01:15:41.033Z,42.36
2019-03-28T01:18:09.262Z,41.58
2019-03-28T01:20:37.193Z,43.98
2019-03-28T01:23:05.128Z,42.98
2019-03-28T01:25:33.085Z,42.01
2019-03-28T01:28:01.231Z,42.01
2019-03-28T01:30:29.190Z,42.40
2019-03-28T01:32:57.204Z,43.15
2019-03-28T01:35:25.771Z,43.84
2019-03-28T01:37:54.400Z,44.78
2019-03-28T01:40:22.487Z,45.37
2019-03-28T01:42:50.426Z,46.12
2019-03-28T01:45:18.365Z,47.35
2019-03-28T01:47:46.225Z,48.11
2019-03-28T01:50:14.243Z,48.80
2019-03-28T01:52:42.290Z,49.58
2019-03-28T01:55:10.332Z,50.78
2019-03-28T01:57:38.340Z,51.44
2019-03-28T02:00:06.902Z,51.88
2019-03-28T02:02:34.904Z,53.81
2019-03-28T02:05:03.269Z,54.35
2019-03-28T02:07:31.275Z,56.00
2019-03-28T02:09:59.350Z,57.22
2019-03-28T02:12:27.358Z,57.64
2019-03-28T02:14:55.404Z,58.08
2019-03-28T02:17:23.422Z,57.94
2019-03-28T02:19:52.753Z,58.20
2019-03-28T02:22:20.718Z,58.93
2019-03-28T02:24:48.703Z,59.20
2019-03-28T02:27:24.034Z,56.71
2019-03-28T02:29:46.629Z,56.62
2019-03-28T02:32:14.616Z,56.39
2019-03-28T02:34:42.754Z,55.35
2019-03-28T02:37:10.731Z,54.97
2019-03-28T02:39:38.769Z,55.49
2019-03-28T02:42:06.737Z,56.46
2019-03-28T02:44:34.741Z,56.24
2019-03-28T02:47:02.732Z,55.65
2019-03-28T02:49:30.762Z,56.20
2019-03-28T02:51:58.807Z,58.36
2019-03-28T02:54:28.074Z,57.10
2019-03-28T02:56:56.036Z,56.03
2019-03-28T02:59:23.979Z,57.03
2019-03-28T03:01:51.998Z,59.10
2019-03-28T03:04:20.000Z,57.74
2019-03-28T03:06:48.036Z,58.72
2019-03-28T03:09:15.951Z,60.29
2019-03-28T03:11:43.965Z,59.90
2019-03-28T03:14:12.254Z,56.60
2019-03-28T03:16:40.286Z,57.45
2019-03-28T03:19:08.331Z,56.86
2019-03-28T03:21:36.467Z,56.30
2019-03-28T03:24:04.517Z,58.80
2019-03-28T03:26:32.417Z,56.21
2019-03-28T03:29:00.423Z,55.71
2019-03-28T03:31:28.485Z,56.35
2019-03-28T03:33:56.515Z,57.01
2019-03-28T03:36:24.628Z,58.23
2019-03-28T03:38:52.701Z,56.54
2019-03-28T03:41:20.644Z,56.68
2019-03-28T03:43:49.671Z,56.48
2019-03-28T03:46:17.765Z,56.44
2019-03-28T03:48:45.841Z,55.13
2019-03-28T03:51:14.607Z,55.50
2019-03-28T03:53:42.978Z,55.45
2019-03-28T03:56:10.980Z,54.82
2019-03-28T03:58:39.446Z,55.23
2019-03-28T04:01:07.443Z,55.57
2019-03-28T04:03:35.464Z,56.04
2019-03-28T04:06:03.606Z,55.99
2019-03-28T04:08:31.550Z,55.87
2019-03-28T04:10:59.627Z,55.54
2019-03-28T04:13:27.626Z,55.62
2019-03-28T04:15:55.777Z,55.70
2019-03-28T04:18:23.825Z,56.37
2019-03-28T04:20:51.952Z,56.73
2019-03-28T04:23:20.057Z,57.42
2019-03-28T04:25:48.135Z,58.60
2019-03-28T04:28:30.825Z,58.32
2019-03-28T04:30:46.035Z,58.30
2019-03-28T04:33:14.097Z,62.61
2019-03-28T04:35:42.227Z,61.96
2019-03-28T04:38:10.276Z,58.66
2019-03-28T04:40:38.207Z,60.79
2019-03-28T04:43:06.241Z,58.00
2019-03-28T04:45:34.374Z,56.86
2019-03-28T04:48:02.299Z,55.44
2019-03-28T04:50:30.267Z,56.50
2019-03-28T04:52:58.327Z,56.29
2019-03-28T04:55:26.325Z,56.69
2019-03-28T04:57:55.389Z,59.96
2019-03-28T05:00:24.138Z,57.36
2019-03-28T05:02:52.156Z,57.18
2019-03-28T05:05:20.723Z,58.02
2019-03-28T05:07:48.753Z,58.91
2019-03-28T05:10:16.828Z,58.41
2019-03-28T05:12:44.895Z,59.04
2019-03-28T05:15:13.185Z,58.66
2019-03-28T05:17:41.228Z,58.01
2019-03-28T05:20:09.538Z,58.28
2019-03-28T05:22:37.553Z,59.04
2019-03-28T05:25:06.063Z,58.64
2019-03-28T05:27:34.053Z,57.57
2019-03-28T05:30:02.060Z,58.18
2019-03-28T05:32:30.042Z,58.98
2019-03-28T05:34:58.133Z,58.44
2019-03-28T05:37:26.139Z,58.77
2019-03-28T05:39:54.184Z,60.04
2019-03-28T05:42:22.231Z,59.67
2019-03-28T05:44:50.454Z,59.54
2019-03-28T05:47:18.460Z,59.91
2019-03-28T05:49:46.427Z,61.51
2019-03-28T05:52:14.490Z,63.19
2019-03-28T05:54:42.479Z,64.49
2019-03-28T05:57:10.498Z,64.52
2019-03-28T05:59:38.575Z,64.28
2019-03-28T06:02:06.742Z,64.66
2019-03-28T06:04:34.768Z,64.75
2019-03-28T06:07:03.136Z,64.46
2019-03-28T06:09:31.169Z,64.93
2019-03-28T06:11:59.281Z,64.05
2019-03-28T06:14:27.651Z,62.19
2019-03-28T06:16:55.742Z,62.21
2019-03-28T06:19:23.791Z,61.37
2019-03-28T06:21:51.730Z,60.94
2019-03-28T06:24:19.783Z,60.46
2019-03-28T06:26:49.994Z,60.72
2019-03-28T06:29:23.767Z,59.61
2019-03-28T06:31:55.103Z,60.01
2019-03-28T06:34:18.139Z,60.94
2019-03-28T06:36:46.114Z,62.44
2019-03-28T06:39:14.163Z,63.72
2019-03-28T06:41:44.370Z,64.62
2019-03-28T06:44:12.068Z,63.68
2019-03-28T06:46:40.075Z,63.70
2019-03-28T06:49:08.073Z,62.91
2019-03-28T06:51:36.673Z,63.27
2019-03-28T06:54:04.700Z,63.88
2019-03-28T06:56:32.702Z,62.45
2019-03-28T06:59:00.774Z,61.31
2019-03-28T07:01:28.771Z,60.95
2019-03-28T07:03:56.846Z,60.39
2019-03-28T07:06:25.418Z,59.18
2019-03-28T07:08:53.552Z,57.17
2019-03-28T07:11:21.735Z,56.97
2019-03-28T07:13:49.761Z,57.23
2019-03-28T07:16:20.906Z,56.57
2019-03-28T07:18:47.753Z,56.34
2019-03-28T07:21:15.694Z,55.14
2019-03-28T07:23:43.736Z,56.60
2019-03-28T07:26:11.779Z,55.48
2019-03-28T07:28:39.761Z,54.53
2019-03-28T07:31:07.908Z,54.09
2019-03-28T07:33:35.937Z,53.59
2019-03-28T07:36:03.945Z,52.55
2019-03-28T07:38:31.926Z,53.25
2019-03-28T07:40:59.977Z,52.82
2019-03-28T07:43:28.001Z,51.75
2019-03-28T07:45:56.012Z,50.71
2019-03-28T07:48:24.021Z,51.21
2019-03-28T07:50:51.962Z,49.40
2019-03-28T07:53:20.932Z,48.82
2019-03-28T07:55:50.004Z,50.15
2019-03-28T07:58:17.974Z,49.48
2019-03-28T08:00:46.023Z,49.67
2019-03-28T08:03:14.092Z,49.67
2019-03-28T08:05:43.622Z,50.57
2019-03-28T08:08:11.677Z,49.66
2019-03-28T08:10:39.726Z,49.43
2019-03-28T08:13:07.881Z,49.34
2019-03-28T08:15:35.923Z,49.30
2019-03-28T08:18:04.114Z,49.37
2019-03-28T08:20:32.186Z,48.99
2019-03-28T08:23:00.198Z,49.65
2019-03-28T08:25:28.235Z,51.45
2019-03-28T08:27:57.756Z,51.13
2019-03-28T08:30:35.205Z,51.27
2019-03-28T08:33:03.912Z,52.03
2019-03-28T08:35:32.780Z,50.78
2019-03-28T08:38:00.779Z,49.56
2019-03-28T08:40:40.285Z,50.34
2019-03-28T08:43:08.492Z,51.32
2019-03-28T08:45:36.629Z,51.11
2019-03-28T08:48:04.736Z,51.78
2019-03-28T08:50:32.869Z,52.76
2019-03-28T08:53:00.969Z,53.58
2019-03-28T08:55:29.204Z,52.18
2019-03-28T08:57:57.166Z,52.39
2019-03-28T09:00:33.078Z,51.39
2019-03-28T09:02:55.335Z,49.88
2019-03-28T09:05:23.595Z,50.52
2019-03-28T09:07:51.896Z,51.15
2019-03-28T09:10:19.927Z,50.63
2019-03-28T09:12:47.971Z,50.99
2019-03-28T09:15:16.134Z,51.11
2019-03-28T09:17:44.173Z,50.24
2019-03-28T09:20:12.424Z,50.25
2019-03-28T09:22:40.405Z,49.23
2019-03-28T09:25:08.750Z,48.58
2019-03-28T09:27:36.765Z,49.83
2019-03-28T09:30:05.815Z,50.33
2019-03-28T09:32:34.189Z,49.51
2019-03-28T09:35:02.288Z,50.20
2019-03-28T09:37:30.361Z,50.13
2019-03-28T09:39:58.471Z,48.26
2019-03-28T09:42:26.410Z,47.79
2019-03-28T09:44:54.526Z,47.15
2019-03-28T09:47:22.714Z,47.16
2019-03-28T09:49:50.964Z,46.97
2019-03-28T09:52:19.213Z,46.75
2019-03-28T09:54:47.202Z,45.42
2019-03-28T09:57:15.251Z,44.69
2019-03-28T09:59:43.234Z,43.40
2019-03-28T10:02:11.444Z,43.81
2019-03-28T10:04:39.491Z,44.32
2019-03-28T10:07:07.887Z,43.23
2019-03-28T10:09:36.135Z,42.76
2019-03-28T10:12:04.388Z,41.93
2019-03-28T10:14:32.441Z,42.82
2019-03-28T10:17:01.422Z,44.00
2019-03-28T10:19:29.516Z,43.87
2019-03-28T10:21:57.723Z,43.70
2019-03-28T10:24:25.699Z,41.87
2019-03-28T10:26:53.918Z,40.43
2019-03-28T10:29:21.981Z,40.78
2019-03-28T10:31:50.369Z,39.32
2019-03-28T10:34:19.087Z,38.65
2019-03-28T10:36:47.134Z,38.89
2019-03-28T10:39:15.248Z,37.97
2019-03-28T10:41:43.289Z,38.25
2019-03-28T10:44:11.390Z,38.87
2019-03-28T10:46:39.479Z,39.01
2019-03-28T10:49:07.466Z,38.48
2019-03-28T10:51:35.574Z,36.58
2019-03-28T10:54:03.527Z,36.21
2019-03-28T10:56:31.570Z,34.62
2019-03-28T10:58:59.628Z,36.24
2019-03-28T11:01:47.162Z,36.15
2019-03-28T11:03:57.630Z,36.21
2019-03-28T11:06:25.801Z,37.72
2019-03-28T11:08:53.806Z,37.77
2019-03-28T11:11:22.572Z,39.03
2019-03-28T11:13:51.082Z,38.54
2019-03-28T11:16:19.262Z,38.78
2019-03-28T11:18:47.240Z,38.63
2019-03-28T11:21:15.339Z,38.60
2019-03-28T11:23:43.299Z,38.31
2019-03-28T11:26:11.332Z,38.29
2019-03-28T11:28:39.372Z,37.16
2019-03-28T11:31:07.379Z,35.85
2019-03-28T11:33:35.299Z,35.22
2019-03-28T11:36:03.443Z,35.79
2019-03-28T11:38:31.439Z,36.04
2019-03-28T11:40:59.511Z,35.35
2019-03-28T11:43:27.472Z,34.34
2019-03-28T11:45:55.654Z,36.37
2019-03-28T11:48:23.729Z,35.23
2019-03-28T11:50:51.780Z,35.11
2019-03-28T11:53:19.805Z,35.39
2019-03-28T11:55:48.985Z,35.43
2019-03-28T11:58:17.124Z,35.61
2019-03-28T12:00:45.214Z,34.78
2019-03-28T12:03:13.322Z,35.06
2019-03-28T12:05:41.443Z,35.43
2019-03-28T12:08:09.705Z,36.14
2019-03-28T12:10:38.791Z,36.35
2019-03-28T12:13:07.284Z,37.52
2019-03-28T12:15:35.428Z,38.36
2019-03-28T12:18:03.602Z,38.51
2019-03-28T12:20:31.632Z,38.67
2019-03-28T12:22:59.611Z,39.03
2019-03-28T12:25:27.718Z,38.87
2019-03-28T12:27:55.772Z,38.55
2019-03-28T12:30:23.966Z,38.16
2019-03-28T12:32:52.035Z,38.11
2019-03-28T12:35:20.074Z,36.87
2019-03-28T12:37:48.900Z,36.66
2019-03-28T12:40:17.002Z,35.92
2019-03-28T12:42:45.198Z,36.87
2019-03-28T12:45:14.475Z,35.26
2019-03-28T12:47:43.256Z,35.81
2019-03-28T12:50:12.296Z,35.12
2019-03-28T12:52:40.365Z,35.58
2019-03-28T12:55:08.952Z,35.06
2019-03-28T12:57:37.053Z,34.89
2019-03-28T13:00:06.946Z,35.85
2019-03-28T13:02:35.252Z,35.08
2019-03-28T13:05:03.784Z,35.00
2019-03-28T13:07:31.832Z,35.29
2019-03-28T13:09:59.917Z,34.94
2019-03-28T13:12:27.990Z,34.23
2019-03-28T13:14:56.132Z,34.51
2019-03-28T13:17:24.315Z,34.88
2019-03-28T13:19:52.350Z,34.94
2019-03-28T13:22:20.289Z,34.62
2019-03-28T13:24:48.290Z,35.30
2019-03-28T13:27:16.297Z,35.18
2019-03-28T13:29:44.357Z,35.85
2019-03-28T13:32:12.409Z,35.64
2019-03-28T13:34:40.501Z,35.10
2019-03-28T13:37:08.477Z,34.79
2019-03-28T13:39:36.581Z,35.55
2019-03-28T13:42:04.720Z,35.47
2019-03-28T13:44:32.846Z,35.99
2019-03-28T13:47:00.851Z,34.80
2019-03-28T13:49:28.781Z,35.18
2019-03-28T13:51:56.885Z,34.57
2019-03-28T13:54:24.886Z,34.17
2019-03-28T13:56:52.965Z,34.19
2019-03-28T13:59:20.930Z,33.70
2019-03-28T14:01:49.070Z,33.43
2019-03-28T14:04:17.067Z,33.67
2019-03-28T14:06:45.098Z,33.42
2019-03-28T14:09:13.183Z,33.76
2019-03-28T14:11:41.253Z,33.57
2019-03-28T14:14:09.558Z,33.87
2019-03-28T14:16:37.894Z,33.50
2019-03-28T14:19:06.092Z,33.34
2019-03-28T14:21:34.104Z,33.84
2019-03-28T14:24:02.766Z,33.98
2019-03-28T14:26:30.886Z,33.94
2019-03-28T14:28:58.971Z,33.21
2019-03-28T14:31:26.974Z,32.87
2019-03-28T14:33:55.112Z,33.11
2019-03-28T14:36:25.191Z,33.77
2019-03-28T14:38:53.147Z,34.31
2019-03-28T14:41:21.172Z,34.61
2019-03-28T14:43:49.143Z,34.90
2019-03-28T14:46:17.179Z,34.92
2019-03-28T14:48:45.244Z,35.05
2019-03-28T14:51:13.369Z,35.00
2019-03-28T14:53:41.421Z,35.19
2019-03-28T14:56:09.666Z,34.60
2019-03-28T14:58:38.683Z,33.93
2019-03-28T15:01:06.713Z,33.94
2019-03-28T15:03:34.651Z,33.29
2019-03-28T15:06:02.777Z,33.59
2019-03-28T15:08:30.922Z,31.23
2019-03-28T15:10:59.059Z,30.51
2019-03-28T15:13:27.186Z,30.71
2019-03-28T15:15:55.213Z,31.28
2019-03-28T15:18:23.187Z,30.48
2019-03-28T15:20:51.197Z,30.62
2019-03-28T15:23:19.319Z,30.20
2019-03-28T15:25:47.403Z,30.30
2019-03-28T15:28:15.512Z,30.36
2019-03-28T15:30:44.050Z,30.86
2019-03-28T15:33:12.307Z,31.49
2019-03-28T15:35:40.491Z,31.10
2019-03-28T15:38:08.686Z,31.76
2019-03-28T15:40:36.845Z,31.70
2019-03-28T15:43:05.097Z,31.97
2019-03-28T15:45:33.747Z,32.30
2019-03-28T15:48:02.304Z,32.60
2019-03-28T15:50:30.436Z,32.92
2019-03-28T15:52:58.604Z,32.75
2019-03-28T15:55:26.713Z,32.89
2019-03-28T15:57:54.766Z,32.88
2019-03-28T16:00:23.104Z,33.25
2019-03-28T16:02:51.357Z,33.84
2019-03-28T16:05:19.876Z,34.18
2019-03-28T16:07:48.013Z,34.58
2019-03-28T16:10:17.028Z,34.81
2019-03-28T16:12:45.263Z,34.89
2019-03-28T16:15:14.788Z,34.35
2019-03-28T16:17:42.792Z,34.39
2019-03-28T16:20:11.343Z,33.67
2019-03-28T16:22:39.496Z,33.76
2019-03-28T16:25:07.886Z,34.11
2019-03-28T16:27:36.191Z,34.49
2019-03-28T16:30:06.315Z,34.89
2019-03-28T16:32:34.405Z,35.33
2019-03-28T16:35:03.884Z,35.73
2019-03-28T16:37:32.744Z,36.03
2019-03-28T16:40:01.585Z,36.09
2019-03-28T16:42:29.720Z,36.11
2019-03-28T16:44:58.009Z,36.57
2019-03-28T16:47:26.467Z,36.70
2019-03-28T16:49:54.827Z,37.03
2019-03-28T16:52:23.750Z,37.27
2019-03-28T16:54:52.026Z,37.52
2019-03-28T16:57:20.490Z,37.79
2019-03-28T16:59:48.680Z,38.17
2019-03-28T17:02:16.719Z,38.67
2019-03-28T17:04:44.786Z,39.12
2019-03-28T17:07:14.394Z,39.40
2019-03-28T17:09:42.833Z,39.67
2019-03-28T17:12:10.900Z,39.93
2019-03-28T17:14:39.169Z,40.08
2019-03-28T17:17:07.160Z,40.16
2019-03-28T17:19:35.241Z,40.39
2019-03-28T17:22:03.236Z,40.64
2019-03-28T17:24:32.034Z,40.76
2019-03-28T17:27:00.036Z,40.94
2019-03-28T17:29:28.198Z,41.31
2019-03-28T17:31:56.592Z,41.54
2019-03-28T17:34:34.786Z,41.75
2019-03-28T17:36:55.211Z,41.90
2019-03-28T17:39:23.499Z,42.04
2019-03-28T17:41:52.768Z,42.22
2019-03-28T17:44:21.016Z,42.36
2019-03-28T17:46:49.033Z,42.28
2019-03-28T17:49:17.086Z,42.30
2019-03-28T17:51:45.073Z,42.64
2019-03-28T17:54:13.193Z,42.49
2019-03-28T17:56:42.170Z,42.34
2019-03-28T17:59:10.277Z,42.28
2019-03-28T18:01:38.382Z,42.65
2019-03-28T18:04:06.551Z,42.59
2019-03-28T18:06:35.350Z,42.47
2019-03-28T18:09:06.286Z,42.99
2019-03-28T18:11:34.363Z,43.08
2019-03-28T18:14:04.010Z,43.35
2019-03-28T18:16:32.304Z,44.16
2019-03-28T18:19:00.495Z,43.45
2019-03-28T18:21:28.673Z,43.30
2019-03-28T18:23:56.670Z,42.91
2019-03-28T18:26:25.740Z,43.41
2019-03-28T18:28:54.457Z,43.31
2019-03-28T18:31:22.551Z,42.91
2019-03-28T18:33:50.625Z,42.49
2019-03-28T18:36:18.665Z,43.38
2019-03-28T18:38:48.148Z,43.35
2019-03-28T18:41:16.276Z,42.85
2019-03-28T18:43:44.267Z,43.13
2019-03-28T18:46:14.745Z,43.71
2019-03-28T18:48:42.482Z,43.38
2019-03-28T18:51:11.307Z,43.38
2019-03-28T18:53:41.363Z,42.95
2019-03-28T18:56:09.463Z,43.47
2019-03-28T18:58:38.784Z,44.91
2019-03-28T19:01:07.563Z,44.92
2019-03-28T19:03:36.470Z,44.66
2019-03-28T19:06:04.511Z,44.11
2019-03-28T19:08:32.634Z,44.40
2019-03-28T19:11:00.987Z,44.15
2019-03-28T19:13:29.222Z,43.81
2019-03-28T19:15:57.226Z,44.12
2019-03-28T19:18:25.716Z,44.12
2019-03-28T19:20:54.042Z,45.27
2019-03-28T19:23:22.011Z,44.71
2019-03-28T19:25:50.064Z,44.37
2019-03-28T19:28:28.741Z,44.99
2019-03-28T19:30:49.192Z,44.02
2019-03-28T19:33:18.011Z,44.22
2019-03-28T19:35:48.370Z,43.80
2019-03-28T19:38:18.808Z,43.68
2019-03-28T19:40:47.500Z,44.12
2019-03-28T19:43:20.835Z,43.83
2019-03-28T19:45:46.470Z,43.76
2019-03-28T19:48:15.278Z,44.46
2019-03-28T19:50:43.556Z,43.33
2019-03-28T19:53:12.113Z,43.18
2019-03-28T19:55:40.365Z,43.00
2019-03-28T19:58:08.952Z,43.10
2019-03-28T20:00:37.366Z,43.15
2019-03-28T20:03:05.439Z,43.45
2019-03-28T20:05:46.336Z,44.57
2019-03-28T20:08:14.816Z,43.69
2019-03-28T20:10:33.939Z,49.65
2019-03-28T20:13:05.294Z,43.97
2019-03-28T20:15:32.423Z,43.34
2019-03-28T20:18:00.350Z,43.18
2019-03-28T20:20:28.455Z,43.06
2019-03-28T20:22:56.775Z,43.92
2019-03-28T20:25:25.883Z,45.72
2019-03-28T20:27:53.947Z,45.49
2019-03-28T20:30:22.285Z,46.54
2019-03-28T20:32:50.245Z,45.49
2019-03-28T20:35:18.687Z,45.06
2019-03-28T20:37:46.746Z,43.65
2019-03-28T20:40:17.221Z,44.63
2019-03-28T20:42:45.558Z,45.21
2019-03-28T20:45:14.260Z,42.86
2019-03-28T20:47:42.399Z,42.87
2019-03-28T20:50:11.320Z,41.44
2019-03-28T20:52:39.298Z,40.72
2019-03-28T20:55:07.875Z,40.89
2019-03-28T20:57:36.203Z,41.66
2019-03-28T21:00:08.313Z,42.84
2019-03-28T21:02:35.045Z,42.22
2019-03-28T21:05:03.446Z,42.31
2019-03-28T21:07:31.499Z,41.33
2019-03-28T21:09:59.587Z,43.92
2019-03-28T21:12:27.579Z,44.65
2019-03-28T21:14:55.650Z,44.37
2019-03-28T21:17:23.644Z,43.88
2019-03-28T21:19:51.683Z,43.88
2019-03-28T21:22:20.838Z,45.16
2019-03-28T21:24:49.018Z,46.25
2019-03-28T21:27:17.036Z,43.72
2019-03-28T21:29:48.991Z,43.56
2019-03-28T21:32:15.008Z,43.48
2019-03-28T21:34:43.221Z,47.93
2019-03-28T21:37:11.255Z,46.88
2019-03-28T21:39:40.266Z,45.65
2019-03-28T21:42:08.635Z,48.97
2019-03-28T21:44:36.857Z,52.09
2019-03-28T21:47:04.845Z,54.75
2019-03-28T21:49:32.868Z,54.52
2019-03-28T21:52:01.405Z,54.24
2019-03-28T21:54:29.523Z,53.75
2019-03-28T21:56:58.316Z,53.47
2019-03-28T21:59:30.029Z,53.26
2019-03-28T22:01:58.982Z,52.49
2019-03-28T22:04:27.069Z,51.19
2019-03-28T22:06:55.375Z,53.31
2019-03-28T22:09:24.207Z,53.00
2019-03-28T22:11:53.020Z,53.61
2019-03-28T22:14:21.486Z,54.76
2019-03-28T22:16:49.978Z,54.83
2019-03-28T22:19:18.300Z,54.39
2019-03-28T22:21:46.275Z,53.17
2019-03-28T22:24:14.643Z,53.94
2019-03-28T22:26:45.912Z,53.86
2019-03-28T22:29:12.877Z,52.71
2019-03-28T22:31:40.894Z,52.77
2019-03-28T22:34:08.912Z,52.19
2019-03-28T22:36:36.992Z,52.64
2019-03-28T22:39:07.337Z,52.15
2019-03-28T22:41:35.359Z,51.99
2019-03-28T22:44:04.099Z,50.16
2019-03-28T22:46:32.117Z,50.58
2019-03-28T22:49:00.251Z,50.22
2019-03-28T22:51:31.497Z,50.68
2019-03-28T22:53:58.362Z,50.19
2019-03-28T22:56:26.454Z,50.20
2019-03-28T22:58:54.619Z,50.31
2019-03-28T23:01:22.596Z,51.55
2019-03-28T23:03:50.610Z,51.01
2019-03-28T23:06:18.619Z,51.08
2019-03-28T23:08:46.639Z,49.37
2019-03-28T23:11:14.844Z,51.52
2019-03-28T23:13:42.877Z,50.16
2019-03-28T23:16:10.835Z,50.29
2019-03-28T23:18:39.895Z,49.38
2019-03-28T23:21:08.154Z,49.67
2019-03-28T23:23:36.125Z,49.76
2019-03-28T23:26:04.180Z,50.28
2019-03-28T23:28:32.292Z,50.94
2019-03-28T23:31:00.283Z,52.02
2019-03-28T23:33:28.287Z,51.48
2019-03-28T23:35:56.292Z,51.48
2019-03-28T23:38:24.293Z,51.91
2019-03-28T23:40:52.332Z,54.60
2019-03-28T23:43:20.368Z,53.40
2019-03-28T23:45:48.477Z,53.30
2019-03-28T23:48:16.516Z,54.34
2019-03-28T23:50:44.504Z,55.00
2019-03-28T23:53:12.555Z,57.78
2019-03-28T23:55:40.569Z,54.53
2019-03-28T23:58:08.535Z,52.75
